sensor_id;sensor_type;location;lat;lon;timestamp;P1;durP1;ratioP1;P2;durP2;ratioP2
14520;SDS011;7347;50.844;4.490;2023-04-03T07:56:07;5.23;;;2.27;;
14520;SDS011;7347;50.844;4.490;2023-04-03T07:58:34;2.40;;;2.20;;
14520;SDS011;7347;50.844;4.490;2023-04-03T08:01:02;2.87;;;2.10;;
14520;SDS011;7347;50.844;4.490;2023-04-03T08:03:29;3.20;;;1.87;;
14520;SDS011;7347;50.844;4.490;2023-04-03T08:06:00;3.03;;;2.17;;
14520;SDS011;7347;50.844;4.490;2023-04-03T08:08:29;4.20;;;1.77;;
14520;SDS011;7347;50.844;4.490;2023-04-03T08:10:57;4.30;;;1.90;;
14520;SDS011;7347;50.844;4.490;2023-04-03T08:13:26;2.13;;;1.80;;
14520;SDS011;7347;50.844;4.490;2023-04-03T08:15:53;3.63;;;1.60;;
14520;SDS011;7347;50.844;4.490;2023-04-03T08:18:22;3.70;;;1.67;;
14520;SDS011;7347;50.844;4.490;2023-04-03T08:20:50;3.47;;;1.77;;
14520;SDS011;7347;50.844;4.490;2023-04-03T08:23:17;2.17;;;1.70;;
14520;SDS011;7347;50.844;4.490;2023-04-03T08:25:45;6.60;;;2.30;;
14520;SDS011;7347;50.844;4.490;2023-04-03T08:28:12;2.30;;;1.70;;
14520;SDS011;7347;50.844;4.490;2023-04-03T08:30:40;3.93;;;1.90;;
14520;SDS011;7347;50.844;4.490;2023-04-03T08:33:07;4.53;;;1.77;;
14520;SDS011;7347;50.844;4.490;2023-04-03T08:35:37;2.77;;;2.10;;
14520;SDS011;7347;50.844;4.490;2023-04-03T08:38:05;3.63;;;1.87;;
14520;SDS011;7347;50.844;4.490;2023-04-03T08:40:32;4.43;;;1.93;;
14520;SDS011;7347;50.844;4.490;2023-04-03T08:43:02;4.67;;;2.00;;
14520;SDS011;7347;50.844;4.490;2023-04-03T08:45:43;4.73;;;1.90;;
14520;SDS011;7347;50.844;4.490;2023-04-03T08:48:15;3.10;;;1.60;;
14520;SDS011;7347;50.844;4.490;2023-04-03T08:50:47;2.60;;;1.73;;
14520;SDS011;7347;50.844;4.490;2023-04-03T08:53:16;3.50;;;1.50;;
14520;SDS011;7347;50.844;4.490;2023-04-03T08:55:45;3.43;;;1.60;;
14520;SDS011;7347;50.844;4.490;2023-04-03T08:58:15;2.90;;;1.50;;
14520;SDS011;7347;50.844;4.490;2023-04-03T09:00:46;3.17;;;1.53;;
14520;SDS011;7347;50.844;4.490;2023-04-03T09:03:18;2.97;;;1.60;;
14520;SDS011;7347;50.844;4.490;2023-04-03T09:05:47;2.97;;;1.50;;
14520;SDS011;7347;50.844;4.490;2023-04-03T09:08:23;2.30;;;1.67;;
14520;SDS011;7347;50.844;4.490;2023-04-03T09:10:54;3.07;;;1.70;;
14520;SDS011;7347;50.844;4.490;2023-04-03T09:13:29;3.03;;;1.30;;
14520;SDS011;7347;50.844;4.490;2023-04-03T09:16:05;3.00;;;1.50;;
14520;SDS011;7347;50.844;4.490;2023-04-03T09:18:47;2.10;;;1.30;;
14520;SDS011;7347;50.844;4.490;2023-04-03T09:21:19;4.30;;;1.30;;
14520;SDS011;7347;50.844;4.490;2023-04-03T09:23:49;3.20;;;1.40;;
14520;SDS011;7347;50.844;4.490;2023-04-03T09:26:18;2.50;;;1.30;;
14520;SDS011;7347;50.844;4.490;2023-04-03T09:28:49;2.83;;;1.07;;
14520;SDS011;7347;50.844;4.490;2023-04-03T09:31:20;2.23;;;1.20;;
14520;SDS011;7347;50.844;4.490;2023-04-03T09:33:49;3.90;;;1.40;;
14520;SDS011;7347;50.844;4.490;2023-04-03T09:36:37;3.37;;;0.97;;
14520;SDS011;7347;50.844;4.490;2023-04-03T09:39:07;1.60;;;0.90;;
14520;SDS011;7347;50.844;4.490;2023-04-03T09:41:37;2.00;;;1.03;;
14520;SDS011;7347;50.844;4.490;2023-04-03T09:44:17;1.30;;;0.90;;
14520;SDS011;7347;50.844;4.490;2023-04-03T09:46:48;3.07;;;1.07;;
14520;SDS011;7347;50.844;4.490;2023-04-03T09:49:16;2.03;;;0.90;;
14520;SDS011;7347;50.844;4.490;2023-04-03T09:51:43;1.63;;;0.90;;
14520;SDS011;7347;50.844;4.490;2023-04-03T09:57:13;1.23;;;1.00;;
14520;SDS011;7347;50.844;4.490;2023-04-03T09:59:42;2.93;;;1.50;;
14520;SDS011;7347;50.844;4.490;2023-04-03T10:05:03;2.30;;;1.03;;
14520;SDS011;7347;50.844;4.490;2023-04-03T10:07:50;1.60;;;0.90;;
14520;SDS011;7347;50.844;4.490;2023-04-03T10:10:18;1.53;;;0.83;;
14520;SDS011;7347;50.844;4.490;2023-04-03T10:12:48;4.40;;;0.90;;
14520;SDS011;7347;50.844;4.490;2023-04-03T10:15:29;1.30;;;0.90;;
14520;SDS011;7347;50.844;4.490;2023-04-03T10:18:04;3.07;;;0.97;;
14520;SDS011;7347;50.844;4.490;2023-04-03T10:20:37;2.57;;;0.80;;
14520;SDS011;7347;50.844;4.490;2023-04-03T10:23:18;1.43;;;0.77;;
14520;SDS011;7347;50.844;4.490;2023-04-03T10:25:54;1.77;;;0.97;;
14520;SDS011;7347;50.844;4.490;2023-04-03T10:28:30;2.97;;;0.90;;
14520;SDS011;7347;50.844;4.490;2023-04-03T10:31:03;3.60;;;0.90;;
14520;SDS011;7347;50.844;4.490;2023-04-03T10:33:42;4.07;;;0.93;;
14520;SDS011;7347;50.844;4.490;2023-04-03T10:36:22;2.77;;;1.00;;
14520;SDS011;7347;50.844;4.490;2023-04-03T10:38:57;2.40;;;0.90;;
14520;SDS011;7347;50.844;4.490;2023-04-03T10:41:33;1.37;;;0.60;;
14520;SDS011;7347;50.844;4.490;2023-04-03T10:44:12;2.90;;;1.10;;
14520;SDS011;7347;50.844;4.490;2023-04-03T10:46:46;2.83;;;0.87;;
14520;SDS011;7347;50.844;4.490;2023-04-03T10:49:20;3.73;;;0.83;;
14520;SDS011;7347;50.844;4.490;2023-04-03T10:52:00;1.17;;;0.90;;
14520;SDS011;7347;50.844;4.490;2023-04-03T10:54:32;2.30;;;0.80;;
14520;SDS011;7347;50.844;4.490;2023-04-03T10:57:03;1.63;;;0.70;;
14520;SDS011;7347;50.844;4.490;2023-04-03T10:59:32;2.50;;;1.00;;
14520;SDS011;7347;50.844;4.490;2023-04-03T11:02:03;3.67;;;0.87;;
14520;SDS011;7347;50.844;4.490;2023-04-03T11:04:35;0.73;;;0.60;;
14520;SDS011;7347;50.844;4.490;2023-04-03T11:07:04;2.00;;;0.70;;
14520;SDS011;7347;50.844;4.490;2023-04-03T11:09:39;2.47;;;0.60;;
14520;SDS011;7347;50.844;4.490;2023-04-03T11:12:09;1.47;;;0.57;;
14520;SDS011;7347;50.844;4.490;2023-04-03T11:14:40;3.13;;;0.53;;
14520;SDS011;7347;50.844;4.490;2023-04-03T11:17:14;1.23;;;0.50;;
14520;SDS011;7347;50.844;4.490;2023-04-03T11:19:49;3.67;;;0.67;;
14520;SDS011;7347;50.844;4.490;2023-04-03T11:22:23;1.60;;;0.60;;
14520;SDS011;7347;50.844;4.490;2023-04-03T11:24:57;1.57;;;0.50;;
14520;SDS011;7347;50.844;4.490;2023-04-03T11:27:28;6.20;;;0.60;;
14520;SDS011;7347;50.844;4.490;2023-04-03T11:30:01;1.30;;;0.60;;
14520;SDS011;7347;50.844;4.490;2023-04-03T11:32:38;2.53;;;0.50;;
14520;SDS011;7347;50.844;4.490;2023-04-03T11:35:17;1.87;;;0.80;;
14520;SDS011;7347;50.844;4.490;2023-04-03T11:37:45;2.60;;;0.90;;
14520;SDS011;7347;50.844;4.490;2023-04-03T11:40:19;2.20;;;1.00;;
14520;SDS011;7347;50.844;4.490;2023-04-03T11:42:51;2.47;;;0.80;;
14520;SDS011;7347;50.844;4.490;2023-04-03T11:45:29;0.87;;;0.60;;
14520;SDS011;7347;50.844;4.490;2023-04-03T11:48:01;1.73;;;0.70;;
14520;SDS011;7347;50.844;4.490;2023-04-03T11:50:37;0.73;;;0.40;;
14520;SDS011;7347;50.844;4.490;2023-04-03T11:53:26;1.50;;;0.90;;
14520;SDS011;7347;50.844;4.490;2023-04-03T11:59:15;2.93;;;0.70;;
14520;SDS011;7347;50.844;4.490;2023-04-03T12:01:48;2.73;;;0.60;;
14520;SDS011;7347;50.844;4.490;2023-04-03T12:04:17;1.70;;;1.17;;
14520;SDS011;7347;50.844;4.490;2023-04-03T12:06:50;2.07;;;1.47;;
14520;SDS011;7347;50.844;4.490;2023-04-03T12:09:34;1.20;;;0.50;;
14520;SDS011;7347;50.844;4.490;2023-04-03T12:12:28;1.20;;;0.57;;
14520;SDS011;7347;50.844;4.490;2023-04-03T12:15:05;0.77;;;0.50;;
14520;SDS011;7347;50.844;4.490;2023-04-03T12:17:49;1.93;;;0.33;;
14520;SDS011;7347;50.844;4.490;2023-04-03T12:23:26;1.30;;;0.50;;
14520;SDS011;7347;50.844;4.490;2023-04-03T12:26:02;0.80;;;0.50;;
14520;SDS011;7347;50.844;4.490;2023-04-03T12:28:47;1.80;;;0.60;;
14520;SDS011;7347;50.844;4.490;2023-04-03T12:31:17;3.13;;;0.70;;
14520;SDS011;7347;50.844;4.490;2023-04-03T12:33:52;1.20;;;0.60;;
14520;SDS011;7347;50.844;4.490;2023-04-03T12:36:39;1.43;;;0.50;;
14520;SDS011;7347;50.844;4.490;2023-04-03T12:39:24;0.97;;;0.40;;
14520;SDS011;7347;50.844;4.490;2023-04-03T12:42:23;1.17;;;0.60;;
14520;SDS011;7347;50.844;4.490;2023-04-03T12:45:02;1.00;;;0.50;;
14520;SDS011;7347;50.844;4.490;2023-04-03T12:47:43;2.67;;;0.70;;
14520;SDS011;7347;50.844;4.490;2023-04-03T12:50:16;6.07;;;0.33;;
14520;SDS011;7347;50.844;4.490;2023-04-03T12:52:50;1.23;;;0.60;;
14520;SDS011;7347;50.844;4.490;2023-04-03T12:55:22;0.90;;;0.33;;
14520;SDS011;7347;50.844;4.490;2023-04-03T12:57:49;1.27;;;0.70;;
14520;SDS011;7347;50.844;4.490;2023-04-03T13:00:20;1.23;;;0.50;;
14520;SDS011;7347;50.844;4.490;2023-04-03T13:02:52;0.60;;;0.40;;
14520;SDS011;7347;50.844;4.490;2023-04-03T13:05:19;1.20;;;0.70;;
14520;SDS011;7347;50.844;4.490;2023-04-03T13:07:48;1.80;;;0.70;;
14520;SDS011;7347;50.844;4.490;2023-04-03T13:10:18;1.30;;;0.40;;
14520;SDS011;7347;50.844;4.490;2023-04-03T13:12:47;1.37;;;0.50;;
14520;SDS011;7347;50.844;4.490;2023-04-03T13:15:17;1.70;;;0.50;;
14520;SDS011;7347;50.844;4.490;2023-04-03T13:17:45;1.70;;;0.57;;
14520;SDS011;7347;50.844;4.490;2023-04-03T13:20:16;0.80;;;0.60;;
14520;SDS011;7347;50.844;4.490;2023-04-03T13:22:50;0.90;;;0.40;;
14520;SDS011;7347;50.844;4.490;2023-04-03T13:25:20;0.93;;;0.40;;
14520;SDS011;7347;50.844;4.490;2023-04-03T13:27:50;1.97;;;0.57;;
14520;SDS011;7347;50.844;4.490;2023-04-03T13:30:21;1.60;;;0.47;;
14520;SDS011;7347;50.844;4.490;2023-04-03T13:32:52;1.63;;;1.03;;
14520;SDS011;7347;50.844;4.490;2023-04-03T13:35:27;0.80;;;0.43;;
14520;SDS011;7347;50.844;4.490;2023-04-03T13:38:01;0.87;;;0.40;;
14520;SDS011;7347;50.844;4.490;2023-04-03T13:40:31;2.27;;;0.50;;
14520;SDS011;7347;50.844;4.490;2023-04-03T13:43:00;1.00;;;0.50;;
14520;SDS011;7347;50.844;4.490;2023-04-03T13:45:28;2.97;;;0.70;;
14520;SDS011;7347;50.844;4.490;2023-04-03T13:48:07;0.90;;;0.50;;
14520;SDS011;7347;50.844;4.490;2023-04-03T13:50:49;1.30;;;0.50;;
14520;SDS011;7347;50.844;4.490;2023-04-03T13:53:18;1.00;;;0.53;;
14520;SDS011;7347;50.844;4.490;2023-04-03T13:55:53;1.70;;;0.60;;
14520;SDS011;7347;50.844;4.490;2023-04-03T13:58:24;0.70;;;0.50;;
14520;SDS011;7347;50.844;4.490;2023-04-03T14:00:53;0.40;;;0.40;;
14520;SDS011;7347;50.844;4.490;2023-04-03T14:03:22;1.03;;;0.50;;
14520;SDS011;7347;50.844;4.490;2023-04-03T14:05:51;1.20;;;0.60;;
14520;SDS011;7347;50.844;4.490;2023-04-03T14:08:19;1.83;;;0.50;;
14520;SDS011;7347;50.844;4.490;2023-04-03T14:10:46;0.97;;;0.60;;
14520;SDS011;7347;50.844;4.490;2023-04-03T14:13:15;1.43;;;0.73;;
14520;SDS011;7347;50.844;4.490;2023-04-03T14:15:46;1.47;;;0.50;;
14520;SDS011;7347;50.844;4.490;2023-04-03T14:18:14;1.80;;;0.50;;
14520;SDS011;7347;50.844;4.490;2023-04-03T14:20:42;1.97;;;0.70;;
14520;SDS011;7347;50.844;4.490;2023-04-03T14:23:10;1.00;;;0.63;;
14520;SDS011;7347;50.844;4.490;2023-04-03T14:25:36;0.63;;;0.50;;
14520;SDS011;7347;50.844;4.490;2023-04-03T14:28:06;1.07;;;0.50;;
14520;SDS011;7347;50.844;4.490;2023-04-03T14:30:41;2.13;;;0.53;;
14520;SDS011;7347;50.844;4.490;2023-04-03T14:33:10;1.50;;;0.70;;
14520;SDS011;7347;50.844;4.490;2023-04-03T14:35:40;1.50;;;0.70;;
14520;SDS011;7347;50.844;4.490;2023-04-03T14:38:12;2.77;;;0.83;;
14520;SDS011;7347;50.844;4.490;2023-04-03T14:40:47;3.33;;;0.63;;
14520;SDS011;7347;50.844;4.490;2023-04-03T14:43:14;0.90;;;0.50;;
14520;SDS011;7347;50.844;4.490;2023-04-03T14:45:41;1.80;;;0.60;;
14520;SDS011;7347;50.844;4.490;2023-04-03T14:48:10;0.70;;;0.50;;
14520;SDS011;7347;50.844;4.490;2023-04-03T14:50:44;0.97;;;0.70;;
14520;SDS011;7347;50.844;4.490;2023-04-03T14:53:12;1.10;;;0.60;;
14520;SDS011;7347;50.844;4.490;2023-04-03T14:55:40;1.47;;;0.70;;
14520;SDS011;7347;50.844;4.490;2023-04-03T14:58:08;0.77;;;0.50;;
14520;SDS011;7347;50.844;4.490;2023-04-03T15:00:38;1.63;;;0.70;;
14520;SDS011;7347;50.844;4.490;2023-04-03T15:03:04;1.00;;;0.90;;
14520;SDS011;7347;50.844;4.490;2023-04-03T15:05:33;0.80;;;0.47;;
14520;SDS011;7347;50.844;4.490;2023-04-03T15:08:02;0.50;;;0.37;;
14520;SDS011;7347;50.844;4.490;2023-04-03T15:10:30;1.30;;;0.70;;
14520;SDS011;7347;50.844;4.490;2023-04-03T15:12:58;1.17;;;0.53;;
14520;SDS011;7347;50.844;4.490;2023-04-03T15:15:27;1.50;;;0.60;;
14520;SDS011;7347;50.844;4.490;2023-04-03T15:17:55;0.67;;;0.40;;
14520;SDS011;7347;50.844;4.490;2023-04-03T15:20:24;1.00;;;0.60;;
14520;SDS011;7347;50.844;4.490;2023-04-03T15:22:54;3.33;;;0.90;;
14520;SDS011;7347;50.844;4.490;2023-04-03T15:25:22;0.73;;;0.57;;
14520;SDS011;7347;50.844;4.490;2023-04-03T15:27:49;3.23;;;0.90;;
14520;SDS011;7347;50.844;4.490;2023-04-03T15:30:17;1.80;;;0.70;;
14520;SDS011;7347;50.844;4.490;2023-04-03T15:32:44;1.57;;;0.50;;
14520;SDS011;7347;50.844;4.490;2023-04-03T15:35:12;1.53;;;0.73;;
14520;SDS011;7347;50.844;4.490;2023-04-03T15:37:39;1.83;;;1.00;;
14520;SDS011;7347;50.844;4.490;2023-04-03T15:40:07;1.83;;;0.70;;
14520;SDS011;7347;50.844;4.490;2023-04-03T15:42:35;3.67;;;0.80;;
14520;SDS011;7347;50.844;4.490;2023-04-03T15:45:02;1.40;;;0.77;;
14520;SDS011;7347;50.844;4.490;2023-04-03T15:47:29;0.90;;;0.50;;
14520;SDS011;7347;50.844;4.490;2023-04-03T15:49:56;3.43;;;0.70;;
14520;SDS011;7347;50.844;4.490;2023-04-03T15:52:23;2.87;;;1.10;;
14520;SDS011;7347;50.844;4.490;2023-04-03T15:54:50;1.10;;;0.70;;
14520;SDS011;7347;50.844;4.490;2023-04-03T15:57:18;1.03;;;0.63;;
14520;SDS011;7347;50.844;4.490;2023-04-03T15:59:45;2.23;;;0.80;;
14520;SDS011;7347;50.844;4.490;2023-04-03T16:02:11;5.90;;;1.13;;
14520;SDS011;7347;50.844;4.490;2023-04-03T16:04:39;1.77;;;0.60;;
14520;SDS011;7347;50.844;4.490;2023-04-03T16:07:06;6.17;;;0.60;;
14520;SDS011;7347;50.844;4.490;2023-04-03T16:09:33;1.47;;;0.80;;
14520;SDS011;7347;50.844;4.490;2023-04-03T16:12:01;3.13;;;0.70;;
14520;SDS011;7347;50.844;4.490;2023-04-03T16:14:30;2.97;;;0.90;;
14520;SDS011;7347;50.844;4.490;2023-04-03T16:16:57;1.77;;;0.90;;
14520;SDS011;7347;50.844;4.490;2023-04-03T16:19:25;2.93;;;1.00;;
14520;SDS011;7347;50.844;4.490;2023-04-03T16:21:52;2.10;;;0.80;;
14520;SDS011;7347;50.844;4.490;2023-04-03T16:24:19;4.13;;;1.30;;
14520;SDS011;7347;50.844;4.490;2023-04-03T16:26:46;1.93;;;0.80;;
14520;SDS011;7347;50.844;4.490;2023-04-03T16:29:13;2.30;;;0.90;;
14520;SDS011;7347;50.844;4.490;2023-04-03T16:31:41;2.43;;;0.70;;
14520;SDS011;7347;50.844;4.490;2023-04-03T16:34:08;1.37;;;0.80;;
14520;SDS011;7347;50.844;4.490;2023-04-03T16:36:35;1.23;;;0.70;;
14520;SDS011;7347;50.844;4.490;2023-04-03T16:39:04;1.10;;;0.77;;
14520;SDS011;7347;50.844;4.490;2023-04-03T16:41:31;1.57;;;0.70;;
14520;SDS011;7347;50.844;4.490;2023-04-03T16:43:58;1.03;;;0.70;;
14520;SDS011;7347;50.844;4.490;2023-04-03T16:46:25;1.40;;;0.70;;
14520;SDS011;7347;50.844;4.490;2023-04-03T16:48:53;2.07;;;0.87;;
14520;SDS011;7347;50.844;4.490;2023-04-03T16:51:20;4.30;;;0.87;;
14520;SDS011;7347;50.844;4.490;2023-04-03T16:53:48;1.97;;;0.90;;
14520;SDS011;7347;50.844;4.490;2023-04-03T16:56:14;1.73;;;0.80;;
14520;SDS011;7347;50.844;4.490;2023-04-03T16:58:41;1.40;;;0.80;;
14520;SDS011;7347;50.844;4.490;2023-04-03T17:01:09;3.63;;;0.70;;
14520;SDS011;7347;50.844;4.490;2023-04-03T17:03:36;1.63;;;0.90;;
14520;SDS011;7347;50.844;4.490;2023-04-03T17:06:05;1.37;;;0.70;;
14520;SDS011;7347;50.844;4.490;2023-04-03T17:08:32;1.47;;;0.70;;
14520;SDS011;7347;50.844;4.490;2023-04-03T17:10:59;1.97;;;0.90;;
14520;SDS011;7347;50.844;4.490;2023-04-03T17:13:26;1.37;;;0.70;;
14520;SDS011;7347;50.844;4.490;2023-04-03T17:15:57;0.90;;;0.60;;
14520;SDS011;7347;50.844;4.490;2023-04-03T17:18:24;2.00;;;0.97;;
14520;SDS011;7347;50.844;4.490;2023-04-03T17:20:52;2.60;;;1.20;;
14520;SDS011;7347;50.844;4.490;2023-04-03T17:23:20;1.13;;;1.03;;
14520;SDS011;7347;50.844;4.490;2023-04-03T17:25:47;1.73;;;0.70;;
14520;SDS011;7347;50.844;4.490;2023-04-03T17:28:14;2.90;;;0.80;;
14520;SDS011;7347;50.844;4.490;2023-04-03T17:30:41;2.40;;;0.90;;
14520;SDS011;7347;50.844;4.490;2023-04-03T17:33:08;2.53;;;0.60;;
14520;SDS011;7347;50.844;4.490;2023-04-03T17:35:34;2.73;;;0.70;;
14520;SDS011;7347;50.844;4.490;2023-04-03T17:38:01;1.37;;;0.70;;
14520;SDS011;7347;50.844;4.490;2023-04-03T17:40:30;1.13;;;0.47;;
14520;SDS011;7347;50.844;4.490;2023-04-03T17:42:56;1.73;;;0.87;;
14520;SDS011;7347;50.844;4.490;2023-04-03T17:45:23;1.03;;;0.70;;
14520;SDS011;7347;50.844;4.490;2023-04-03T17:47:51;1.50;;;0.60;;
14520;SDS011;7347;50.844;4.490;2023-04-03T17:50:19;2.73;;;0.70;;
14520;SDS011;7347;50.844;4.490;2023-04-03T17:52:46;2.17;;;0.70;;
14520;SDS011;7347;50.844;4.490;2023-04-03T17:55:13;3.77;;;1.13;;
14520;SDS011;7347;50.844;4.490;2023-04-03T17:57:43;1.07;;;0.70;;
14520;SDS011;7347;50.844;4.490;2023-04-03T18:00:10;1.43;;;0.93;;
14520;SDS011;7347;50.844;4.490;2023-04-03T18:02:37;1.50;;;0.80;;
14520;SDS011;7347;50.844;4.490;2023-04-03T18:05:05;2.00;;;0.90;;
14520;SDS011;7347;50.844;4.490;2023-04-03T18:07:33;2.90;;;1.00;;
14520;SDS011;7347;50.844;4.490;2023-04-03T18:09:59;5.20;;;1.20;;
14520;SDS011;7347;50.844;4.490;2023-04-03T18:12:29;2.83;;;1.00;;
14520;SDS011;7347;50.844;4.490;2023-04-03T18:14:58;2.33;;;1.00;;
14520;SDS011;7347;50.844;4.490;2023-04-03T18:17:26;4.10;;;1.10;;
14520;SDS011;7347;50.844;4.490;2023-04-03T18:19:53;3.10;;;1.10;;
14520;SDS011;7347;50.844;4.490;2023-04-03T18:22:20;1.17;;;0.70;;
14520;SDS011;7347;50.844;4.490;2023-04-03T18:24:49;2.43;;;1.00;;
14520;SDS011;7347;50.844;4.490;2023-04-03T18:27:17;4.07;;;0.90;;
14520;SDS011;7347;50.844;4.490;2023-04-03T18:29:47;4.37;;;0.90;;
14520;SDS011;7347;50.844;4.490;2023-04-03T18:32:18;1.67;;;0.70;;
14520;SDS011;7347;50.844;4.490;2023-04-03T18:34:46;1.27;;;0.90;;
14520;SDS011;7347;50.844;4.490;2023-04-03T18:37:13;2.33;;;0.87;;
14520;SDS011;7347;50.844;4.490;2023-04-03T18:39:41;1.67;;;0.80;;
14520;SDS011;7347;50.844;4.490;2023-04-03T18:42:08;5.70;;;1.20;;
14520;SDS011;7347;50.844;4.490;2023-04-03T18:44:37;1.30;;;0.70;;
14520;SDS011;7347;50.844;4.490;2023-04-03T18:47:06;2.63;;;0.73;;
14520;SDS011;7347;50.844;4.490;2023-04-03T18:49:35;2.00;;;0.87;;
14520;SDS011;7347;50.844;4.490;2023-04-03T18:52:04;2.30;;;1.10;;
14520;SDS011;7347;50.844;4.490;2023-04-03T18:54:31;1.20;;;0.60;;
14520;SDS011;7347;50.844;4.490;2023-04-03T18:56:58;2.90;;;0.90;;
14520;SDS011;7347;50.844;4.490;2023-04-03T18:59:25;2.47;;;0.80;;
14520;SDS011;7347;50.844;4.490;2023-04-03T19:01:52;1.30;;;0.70;;
14520;SDS011;7347;50.844;4.490;2023-04-03T19:04:20;1.23;;;0.80;;
14520;SDS011;7347;50.844;4.490;2023-04-03T19:06:48;2.67;;;0.90;;
14520;SDS011;7347;50.844;4.490;2023-04-03T19:09:15;3.70;;;0.93;;
14520;SDS011;7347;50.844;4.490;2023-04-03T19:11:42;2.17;;;1.00;;
14520;SDS011;7347;50.844;4.490;2023-04-03T19:14:09;3.90;;;1.33;;
14520;SDS011;7347;50.844;4.490;2023-04-03T19:16:35;3.17;;;0.87;;
14520;SDS011;7347;50.844;4.490;2023-04-03T19:19:03;1.70;;;0.80;;
14520;SDS011;7347;50.844;4.490;2023-04-03T19:21:30;2.50;;;0.80;;
14520;SDS011;7347;50.844;4.490;2023-04-03T19:23:58;7.00;;;0.80;;
14520;SDS011;7347;50.844;4.490;2023-04-03T19:26:25;0.93;;;0.70;;
14520;SDS011;7347;50.844;4.490;2023-04-03T19:28:52;3.80;;;0.93;;
14520;SDS011;7347;50.844;4.490;2023-04-03T19:31:19;2.43;;;0.70;;
14520;SDS011;7347;50.844;4.490;2023-04-03T19:33:47;1.43;;;0.70;;
14520;SDS011;7347;50.844;4.490;2023-04-03T19:36:14;2.30;;;1.00;;
14520;SDS011;7347;50.844;4.490;2023-04-03T19:38:42;1.17;;;0.77;;
14520;SDS011;7347;50.844;4.490;2023-04-03T19:41:12;2.10;;;0.90;;
14520;SDS011;7347;50.844;4.490;2023-04-03T19:43:40;1.70;;;0.93;;
14520;SDS011;7347;50.844;4.490;2023-04-03T19:46:07;5.23;;;0.97;;
14520;SDS011;7347;50.844;4.490;2023-04-03T19:48:34;4.00;;;1.10;;
14520;SDS011;7347;50.844;4.490;2023-04-03T19:51:02;3.37;;;0.90;;
14520;SDS011;7347;50.844;4.490;2023-04-03T19:53:30;3.47;;;1.20;;
14520;SDS011;7347;50.844;4.490;2023-04-03T19:55:57;1.83;;;0.90;;
14520;SDS011;7347;50.844;4.490;2023-04-03T19:58:25;3.03;;;0.90;;
14520;SDS011;7347;50.844;4.490;2023-04-03T20:00:53;3.57;;;0.90;;
14520;SDS011;7347;50.844;4.490;2023-04-03T20:03:21;1.63;;;0.73;;
14520;SDS011;7347;50.844;4.490;2023-04-03T20:05:48;2.50;;;0.90;;
14520;SDS011;7347;50.844;4.490;2023-04-03T20:08:15;2.77;;;1.00;;
14520;SDS011;7347;50.844;4.490;2023-04-03T20:10:42;2.33;;;0.90;;
14520;SDS011;7347;50.844;4.490;2023-04-03T20:13:10;2.77;;;0.83;;
14520;SDS011;7347;50.844;4.490;2023-04-03T20:15:39;2.37;;;0.93;;
14520;SDS011;7347;50.844;4.490;2023-04-03T20:18:08;7.70;;;1.40;;
14520;SDS011;7347;50.844;4.490;2023-04-03T20:20:42;3.67;;;1.23;;
14520;SDS011;7347;50.844;4.490;2023-04-03T20:23:08;2.10;;;0.80;;
14520;SDS011;7347;50.844;4.490;2023-04-03T20:25:39;2.80;;;1.13;;
14520;SDS011;7347;50.844;4.490;2023-04-03T20:28:06;3.17;;;1.10;;
14520;SDS011;7347;50.844;4.490;2023-04-03T20:30:34;4.27;;;1.40;;
14520;SDS011;7347;50.844;4.490;2023-04-03T20:33:02;4.03;;;1.10;;
14520;SDS011;7347;50.844;4.490;2023-04-03T20:35:29;4.60;;;1.30;;
14520;SDS011;7347;50.844;4.490;2023-04-03T20:37:57;2.17;;;1.10;;
14520;SDS011;7347;50.844;4.490;2023-04-03T20:40:24;2.00;;;1.07;;
14520;SDS011;7347;50.844;4.490;2023-04-03T20:42:51;4.07;;;0.70;;
14520;SDS011;7347;50.844;4.490;2023-04-03T20:45:19;2.03;;;0.70;;
14520;SDS011;7347;50.844;4.490;2023-04-03T20:47:46;3.33;;;0.70;;
14520;SDS011;7347;50.844;4.490;2023-04-03T20:50:14;1.57;;;0.77;;
14520;SDS011;7347;50.844;4.490;2023-04-03T20:52:41;1.73;;;0.77;;
14520;SDS011;7347;50.844;4.490;2023-04-03T20:55:08;1.83;;;0.60;;
14520;SDS011;7347;50.844;4.490;2023-04-03T20:57:35;1.93;;;0.60;;
14520;SDS011;7347;50.844;4.490;2023-04-03T21:00:02;2.27;;;0.80;;
14520;SDS011;7347;50.844;4.490;2023-04-03T21:02:31;4.90;;;0.93;;
14520;SDS011;7347;50.844;4.490;2023-04-03T21:04:58;2.50;;;1.00;;
14520;SDS011;7347;50.844;4.490;2023-04-03T21:19:11;3.47;;;1.13;;
14520;SDS011;7347;50.844;4.490;2023-04-03T21:21:40;1.67;;;0.93;;
14520;SDS011;7347;50.844;4.490;2023-04-03T21:24:07;1.20;;;0.80;;
14520;SDS011;7347;50.844;4.490;2023-04-03T21:26:36;3.70;;;0.90;;
14520;SDS011;7347;50.844;4.490;2023-04-03T21:29:04;2.53;;;0.83;;
14520;SDS011;7347;50.844;4.490;2023-04-03T21:31:47;2.23;;;0.80;;
14520;SDS011;7347;50.844;4.490;2023-04-03T21:34:18;2.67;;;1.00;;
14520;SDS011;7347;50.844;4.490;2023-04-03T21:36:47;1.60;;;1.10;;
14520;SDS011;7347;50.844;4.490;2023-04-03T21:39:15;5.77;;;1.47;;
14520;SDS011;7347;50.844;4.490;2023-04-03T21:41:42;3.50;;;1.30;;
14520;SDS011;7347;50.844;4.490;2023-04-03T21:44:09;2.83;;;1.00;;
